createdAt,value
2023-01-19T00:00:21.026Z,98949.34
2023-01-19T00:03:22.518Z,98943.25
2023-01-19T00:06:24.000Z,98958.50
2023-01-19T00:09:25.475Z,98957.66
2023-01-19T00:12:26.987Z,98951.38
2023-01-19T00:15:28.425Z,98946.19
2023-01-19T00:18:29.963Z,98956.19
2023-01-19T00:21:31.506Z,98964.47
2023-01-19T00:24:33.127Z,98950.09
2023-01-19T00:27:34.940Z,98963.00
2023-01-19T00:30:37.309Z,98958.41
2023-01-19T00:33:38.815Z,98958.63
2023-01-19T00:36:40.271Z,98965.03
2023-01-19T00:39:41.779Z,98967.09
2023-01-19T00:42:48.240Z,98972.72
2023-01-19T00:45:49.821Z,98971.03
2023-01-19T00:48:51.289Z,98972.06
2023-01-19T00:51:52.730Z,98980.19
2023-01-19T00:54:54.212Z,98983.06
2023-01-19T00:57:55.881Z,98976.81
2023-01-19T01:01:03.298Z,98974.09
2023-01-19T01:04:05.111Z,98985.16
2023-01-19T01:07:06.721Z,98984.09
2023-01-19T01:10:12.736Z,98983.28
2023-01-19T01:13:21.721Z,98988.03
2023-01-19T01:16:26.274Z,98982.63
2023-01-19T01:19:27.822Z,98982.63
2023-01-19T01:22:29.361Z,98998.03
2023-01-19T01:25:31.481Z,98994.28
2023-01-19T01:28:33.460Z,98984.50
2023-01-19T01:31:35.204Z,98981.78
2023-01-19T01:34:36.681Z,98980.09
2023-01-19T01:37:38.892Z,98978.41
2023-01-19T01:40:40.881Z,98989.25
2023-01-19T01:43:48.309Z,98992.78
2023-01-19T01:46:49.867Z,98987.59
2023-01-19T01:50:08.637Z,98985.72
2023-01-19T01:53:14.812Z,98969.47
2023-01-19T01:56:21.045Z,98980.28
2023-01-19T01:59:28.241Z,98973.38
2023-01-19T02:02:51.558Z,98972.34
2023-01-19T02:05:57.396Z,98967.75
2023-01-19T02:09:28.677Z,98965.25
2023-01-19T02:12:48.596Z,98967.31
2023-01-19T02:16:09.521Z,98967.13
2023-01-19T02:19:16.505Z,98972.72
2023-01-19T02:22:38.492Z,98960.25
2023-01-19T02:25:40.471Z,98978.53
2023-01-19T02:28:47.418Z,98978.31
2023-01-19T02:31:48.972Z,98985.81
2023-01-19T02:34:50.463Z,98983.94
2023-01-19T02:37:53.975Z,98984.94
2023-01-19T02:40:57.786Z,98963.50
2023-01-19T02:44:01.034Z,98984.94
2023-01-19T02:47:03.752Z,98977.88
2023-01-19T02:50:25.533Z,98974.31
2023-01-19T02:53:32.670Z,98985.16
2023-01-19T02:56:37.175Z,98988.69
2023-01-19T03:00:02.472Z,98986.81
2023-01-19T03:03:06.998Z,98980.56
2023-01-19T03:06:12.531Z,98980.75
2023-01-19T03:09:32.481Z,98978.69
2023-01-19T03:13:03.323Z,98981.59
2023-01-19T03:16:10.186Z,98986.16
2023-01-19T03:19:28.614Z,98989.88
2023-01-19T03:22:30.172Z,98992.75
2023-01-19T03:25:36.259Z,98987.34
2023-01-19T03:28:41.076Z,98990.06
2023-01-19T03:31:45.614Z,98991.09
2023-01-19T03:34:49.978Z,98974.03
2023-01-19T03:37:56.009Z,98984.84
2023-01-19T03:41:02.108Z,98982.97
2023-01-19T03:44:06.174Z,98976.72
2023-01-19T03:47:10.684Z,98989.41
2023-01-19T03:50:23.853Z,98983.81
2023-01-19T03:53:25.307Z,98974.38
2023-01-19T03:56:26.810Z,98974.19
2023-01-19T03:59:28.308Z,98983.34
2023-01-19T04:02:29.843Z,98971.50
2023-01-19T04:05:31.946Z,98975.84
2023-01-19T04:08:33.546Z,98972.97
2023-01-19T04:11:35.063Z,98971.75
2023-01-19T04:14:36.703Z,98986.00
2023-01-19T04:17:39.217Z,98979.53
2023-01-19T04:20:40.782Z,98967.69
2023-01-19T04:23:44.256Z,98966.47
2023-01-19T04:26:45.743Z,98968.34
2023-01-19T04:29:47.204Z,98975.25
2023-01-19T04:32:48.664Z,98973.38
2023-01-19T04:35:52.810Z,98971.34
2023-01-19T04:38:55.631Z,98968.63
2023-01-19T04:42:00.774Z,98966.56
2023-01-19T04:45:02.296Z,98953.00
2023-01-19T04:48:05.705Z,98962.63
2023-01-19T04:51:07.197Z,98959.09
2023-01-19T04:54:09.150Z,98952.66
2023-01-19T04:57:10.622Z,98959.75
2023-01-19T05:00:12.622Z,98966.81
2023-01-19T05:03:14.195Z,98964.13
2023-01-19T05:06:15.705Z,98966.00
2023-01-19T05:09:17.265Z,98965.16
2023-01-19T05:12:18.780Z,98972.44
2023-01-19T05:15:20.275Z,98974.31
2023-01-19T05:18:21.721Z,98979.91
2023-01-19T05:21:23.203Z,98981.97
2023-01-19T05:24:24.772Z,98987.59
2023-01-19T05:27:26.256Z,98977.75
2023-01-19T05:30:27.761Z,98995.03
2023-01-19T05:33:29.311Z,98991.50
2023-01-19T05:36:31.940Z,98986.25
2023-01-19T05:39:33.945Z,98990.84
2023-01-19T05:42:36.653Z,98983.72
2023-01-19T05:45:41.143Z,98982.91
2023-01-19T05:48:42.624Z,98982.72
2023-01-19T05:51:45.418Z,98989.16
2023-01-19T05:54:48.118Z,98984.38
2023-01-19T05:57:49.708Z,98988.78
2023-01-19T06:00:51.239Z,98981.31
2023-01-19T06:03:52.734Z,98981.13
2023-01-19T06:06:54.305Z,98974.50
2023-01-19T06:09:55.793Z,98982.44
2023-01-19T06:12:57.266Z,98991.19
2023-01-19T06:15:59.937Z,98993.53
2023-01-19T06:19:01.431Z,98997.75
2023-01-19T06:22:03.005Z,98991.94
2023-01-19T06:25:05.692Z,98993.59
2023-01-19T06:28:07.181Z,98994.28
2023-01-19T06:31:08.681Z,98990.72
2023-01-19T06:34:10.801Z,98991.19
2023-01-19T06:37:12.439Z,98993.06
2023-01-19T06:40:14.613Z,98992.22
2023-01-19T06:43:16.476Z,98990.34
2023-01-19T06:46:17.979Z,98991.69
2023-01-19T06:49:19.433Z,98995.13
2023-01-19T06:52:20.992Z,98995.78
2023-01-19T06:55:22.584Z,98994.78
2023-01-19T06:58:27.824Z,98993.94
2023-01-19T07:01:29.414Z,98996.66
2023-01-19T07:04:30.953Z,98999.13
2023-01-19T07:07:32.544Z,99003.56
2023-01-19T07:11:24.856Z,98998.13
2023-01-19T07:13:55.788Z,98996.25
2023-01-19T07:16:57.452Z,98996.44
2023-01-19T07:19:59.016Z,99010.63
2023-01-19T07:23:01.383Z,99011.66
2023-01-19T07:26:03.145Z,99019.59
2023-01-19T07:29:04.602Z,99014.16
2023-01-19T07:32:06.233Z,99029.41
2023-01-19T07:35:08.762Z,99025.66
2023-01-19T07:38:10.253Z,99026.50
2023-01-19T07:41:11.890Z,99025.66
2023-01-19T07:44:13.408Z,99030.25
2023-01-19T07:47:15.197Z,99034.81
2023-01-19T07:50:21.309Z,99031.91
2023-01-19T07:53:22.847Z,99038.38
2023-01-19T07:56:24.693Z,99041.06
2023-01-19T07:59:27.463Z,99036.50
2023-01-19T08:02:30.087Z,99060.03
2023-01-19T08:05:33.095Z,99036.50
2023-01-19T08:08:35.767Z,99043.56
2023-01-19T08:11:37.747Z,99039.19
2023-01-19T08:14:39.252Z,99059.81
2023-01-19T08:17:40.707Z,99051.53
2023-01-19T08:20:42.174Z,99042.34
2023-01-19T08:23:43.687Z,99038.63
2023-01-19T08:26:45.236Z,99046.56
2023-01-19T08:29:47.090Z,99046.56
2023-01-19T08:32:48.662Z,99052.84
2023-01-19T08:35:53.977Z,99049.94
2023-01-19T08:38:55.445Z,99058.03
2023-01-19T08:41:58.051Z,99055.16
2023-01-19T08:44:59.509Z,99057.66
2023-01-19T08:48:01.414Z,99062.91
2023-01-19T08:51:03.181Z,99061.88
2023-01-19T08:54:04.793Z,99073.19
2023-01-19T08:57:06.270Z,99070.47
2023-01-19T09:00:11.007Z,99081.75
2023-01-19T09:03:13.747Z,99079.88
2023-01-19T09:06:19.787Z,99084.09
2023-01-19T09:09:21.273Z,99082.88
2023-01-19T09:12:22.788Z,99084.75
2023-01-19T09:15:24.263Z,99088.28
2023-01-19T09:18:25.717Z,99084.56
2023-01-19T09:21:28.775Z,99091.47
2023-01-19T09:24:30.312Z,99095.88
2023-01-19T09:27:31.802Z,99092.31
2023-01-19T09:30:34.037Z,99102.13
2023-01-19T09:33:35.770Z,99104.00
2023-01-19T09:36:39.308Z,99101.28
2023-01-19T09:39:40.840Z,99110.25
2023-01-19T09:42:51.130Z,99110.25
2023-01-19T09:45:58.914Z,99117.53
2023-01-19T09:49:06.535Z,99114.00
2023-01-19T09:52:12.520Z,99123.78
2023-01-19T09:55:26.539Z,99128.38
2023-01-19T09:58:28.684Z,99129.41
2023-01-19T10:01:49.707Z,99131.06
2023-01-19T10:04:59.753Z,99137.53
2023-01-19T10:08:18.171Z,99145.66
2023-01-19T10:11:42.125Z,99149.38
2023-01-19T10:15:13.132Z,99146.03
2023-01-19T10:18:35.673Z,99144.34
2023-01-19T10:21:46.325Z,99132.84
2023-01-19T10:24:53.196Z,99131.34
2023-01-19T10:27:54.764Z,99145.09
2023-01-19T10:30:56.245Z,99137.97
2023-01-19T10:33:58.078Z,99149.19
2023-01-19T10:37:05.867Z,99147.31
2023-01-19T10:40:10.340Z,99141.06
2023-01-19T10:43:43.182Z,99142.28
2023-01-19T10:46:46.954Z,99143.47
2023-01-19T10:49:49.271Z,99127.44
2023-01-19T10:52:53.803Z,99132.84
2023-01-19T10:56:10.398Z,99139.78
2023-01-19T10:59:52.028Z,99142.47
2023-01-19T11:02:53.882Z,99167.84
2023-01-19T11:06:13.772Z,99161.44
2023-01-19T11:09:18.168Z,99168.69
2023-01-19T11:12:23.943Z,99173.09
2023-01-19T11:15:28.521Z,99167.47
2023-01-19T11:18:32.838Z,99163.56
2023-01-19T11:21:34.563Z,99168.13
2023-01-19T11:24:38.229Z,99172.34
2023-01-19T11:27:50.821Z,99162.19
2023-01-19T11:31:01.546Z,99178.25
2023-01-19T11:34:06.233Z,99180.97
2023-01-19T11:37:17.214Z,99179.91
2023-01-19T11:40:18.864Z,99179.91
2023-01-19T11:43:22.298Z,99166.38
2023-01-19T11:46:27.128Z,99178.03
2023-01-19T11:49:44.323Z,99182.47
2023-01-19T11:52:51.210Z,99177.03
2023-01-19T11:56:10.158Z,99184.31
2023-01-19T11:59:13.147Z,99184.50
2023-01-19T12:02:28.138Z,99182.63
2023-01-19T12:05:33.858Z,99185.34
2023-01-19T12:08:57.874Z,99190.75
2023-01-19T12:12:17.044Z,99183.66
2023-01-19T12:15:30.461Z,99184.00
2023-01-19T12:18:45.267Z,99184.00
2023-01-19T12:21:48.346Z,99188.81
2023-01-19T12:25:02.879Z,99205.03
2023-01-19T12:28:11.077Z,99204.38
2023-01-19T12:31:17.801Z,99209.97
2023-01-19T12:34:25.914Z,99209.31
2023-01-19T12:37:28.291Z,99215.09
2023-01-19T12:40:31.457Z,99216.31
2023-01-19T12:43:33.052Z,99214.63
2023-01-19T12:46:34.799Z,99227.50
2023-01-19T12:49:45.640Z,99226.84
2023-01-19T12:52:57.122Z,99233.28
2023-01-19T12:56:00.924Z,99224.50
2023-01-19T12:59:04.150Z,99241.78
2023-01-19T13:02:17.937Z,99240.75
2023-01-19T13:05:22.318Z,99252.41
2023-01-19T13:08:30.385Z,99244.28
2023-01-19T13:11:34.577Z,99252.50
2023-01-19T13:14:37.801Z,99255.75
2023-01-19T13:17:52.741Z,99257.22
2023-01-19T13:20:58.593Z,99259.19
2023-01-19T13:24:05.757Z,99264.16
2023-01-19T13:27:12.932Z,99269.38
2023-01-19T13:30:17.781Z,99274.41
2023-01-19T13:33:23.977Z,99262.88
2023-01-19T13:36:30.111Z,99270.06
2023-01-19T13:39:37.077Z,99282.16
2023-01-19T13:42:41.530Z,99283.47
2023-01-19T13:45:50.688Z,99286.78
2023-01-19T13:49:19.007Z,99288.22
2023-01-19T13:52:25.994Z,99286.50
2023-01-19T13:55:30.051Z,99301.88
2023-01-19T13:58:31.955Z,99298.25
2023-01-19T14:01:33.663Z,99303.97
2023-01-19T14:04:35.425Z,99303.25
2023-01-19T14:07:37.065Z,99314.38
2023-01-19T14:10:46.346Z,99312.16
2023-01-19T14:13:47.795Z,99325.34
2023-01-19T14:16:49.290Z,99315.34
2023-01-19T14:19:53.663Z,99314.97
2023-01-19T14:22:55.345Z,99313.97
2023-01-19T14:25:57.513Z,99320.22
2023-01-19T14:29:06.772Z,99324.44
2023-01-19T14:32:19.525Z,99328.81
2023-01-19T14:35:24.878Z,99326.94
2023-01-19T14:38:26.632Z,99337.78
2023-01-19T14:41:44.642Z,99346.41
2023-01-19T14:44:49.748Z,99339.94
2023-01-19T14:48:01.856Z,99355.19
2023-01-19T14:51:04.910Z,99368.75
2023-01-19T14:54:15.529Z,99372.09
2023-01-19T14:57:17.075Z,99379.38
2023-01-19T15:00:20.429Z,99383.97
2023-01-19T15:03:26.833Z,99378.38
2023-01-19T15:06:38.605Z,99384.44
2023-01-19T15:09:40.176Z,99384.25
2023-01-19T15:12:41.746Z,99389.31
2023-01-19T15:15:43.252Z,99389.97
2023-01-19T15:18:44.873Z,99392.69
2023-01-19T15:21:46.886Z,99394.56
2023-01-19T15:24:49.682Z,99400.81
2023-01-19T15:27:51.571Z,99409.97
2023-01-19T15:30:57.651Z,99416.03
2023-01-19T15:33:59.218Z,99408.78
2023-01-19T15:37:00.788Z,99415.88
2023-01-19T15:40:02.355Z,99422.97
2023-01-19T15:43:03.817Z,99426.34
2023-01-19T15:46:06.803Z,99431.75
2023-01-19T15:49:08.428Z,99435.31
2023-01-19T15:52:09.948Z,99427.19
2023-01-19T15:55:12.214Z,99439.53
2023-01-19T15:58:14.071Z,99444.91
2023-01-19T16:01:34.674Z,99453.31
2023-01-19T16:04:36.239Z,99462.34
2023-01-19T16:07:37.768Z,99459.63
2023-01-19T16:10:41.622Z,99461.66
2023-01-19T16:13:47.291Z,99459.25
2023-01-19T16:16:49.184Z,99460.56
2023-01-19T16:19:50.632Z,99466.66
2023-01-19T16:22:52.857Z,99465.47
2023-01-19T16:26:04.933Z,99468.66
2023-01-19T16:29:09.684Z,99469.50
2023-01-19T16:32:11.164Z,99476.44
2023-01-19T16:35:13.158Z,99480.66
2023-01-19T16:38:14.799Z,99481.50
2023-01-19T16:41:16.748Z,99485.88
2023-01-19T16:44:18.311Z,99499.09
2023-01-19T16:47:20.079Z,99496.00
2023-01-19T16:50:21.553Z,99493.97
2023-01-19T16:53:23.026Z,99492.78
2023-01-19T16:56:24.817Z,99503.41
2023-01-19T16:59:27.115Z,99503.06
2023-01-19T17:02:28.649Z,99496.44
2023-01-19T17:05:30.183Z,99507.78
2023-01-19T17:08:32.604Z,99516.38
2023-01-19T17:11:34.848Z,99506.38
2023-01-19T17:14:37.335Z,99516.88
2023-01-19T17:17:38.827Z,99515.84
2023-01-19T17:20:40.297Z,99517.53
2023-01-19T17:23:42.883Z,99520.91
2023-01-19T17:26:45.894Z,99522.59
2023-01-19T17:29:50.033Z,99525.97
2023-01-19T17:32:51.566Z,99530.38
2023-01-19T17:35:53.050Z,99532.72
2023-01-19T17:38:57.396Z,99534.91
2023-01-19T17:41:59.007Z,99537.59
2023-01-19T17:45:00.543Z,99534.06
2023-01-19T17:48:03.712Z,99541.16
2023-01-19T17:51:07.365Z,99542.84
2023-01-19T17:54:10.656Z,99557.25
2023-01-19T17:57:12.179Z,99558.94
2023-01-19T18:00:14.755Z,99562.31
2023-01-19T18:03:16.391Z,99554.19
2023-01-19T18:06:18.283Z,99557.72
2023-01-19T18:09:19.779Z,99557.72
2023-01-19T18:12:23.060Z,99562.97
2023-01-19T18:15:24.534Z,99572.63
2023-01-19T18:18:27.034Z,99569.72
2023-01-19T18:21:30.190Z,99563.44
2023-01-19T18:24:31.658Z,99576.19
2023-01-19T18:27:33.163Z,99577.00
2023-01-19T18:30:35.703Z,99571.44
2023-01-19T18:33:38.500Z,99576.41
2023-01-19T18:36:40.026Z,99588.34
2023-01-19T18:39:41.539Z,99593.38
2023-01-19T18:42:43.229Z,99590.56
2023-01-19T18:45:47.882Z,99587.56
2023-01-19T18:48:49.664Z,99598.72
2023-01-19T18:51:51.131Z,99594.13
2023-01-19T18:54:52.694Z,99594.09
2023-01-19T18:57:54.186Z,99598.63
2023-01-19T19:00:56.540Z,99600.63
2023-01-19T19:03:58.220Z,99601.97
2023-01-19T19:06:59.733Z,99599.72
2023-01-19T19:10:01.260Z,99602.09
2023-01-19T19:13:03.141Z,99607.16
2023-01-19T19:16:06.534Z,99619.31
2023-01-19T19:19:08.463Z,99618.13
2023-01-19T19:22:09.916Z,99621.50
2023-01-19T19:25:11.402Z,99632.88
2023-01-19T19:28:12.892Z,99629.94
2023-01-19T19:31:17.981Z,99626.88
2023-01-19T19:34:19.539Z,99631.47
2023-01-19T19:37:21.059Z,99635.88
2023-01-19T19:40:23.479Z,99642.16
2023-01-19T19:43:25.022Z,99635.69
2023-01-19T19:46:27.215Z,99637.41
2023-01-19T19:49:28.742Z,99640.09
2023-01-19T19:52:30.203Z,99640.94
2023-01-19T19:55:31.673Z,99646.38
2023-01-19T19:58:33.657Z,99654.31
2023-01-19T20:01:35.279Z,99655.34
2023-01-19T20:04:36.836Z,99654.31
2023-01-19T20:07:39.344Z,99658.72
2023-01-19T20:10:40.801Z,99666.88
2023-01-19T20:13:43.752Z,99660.59
2023-01-19T20:16:45.359Z,99666.03
2023-01-19T20:19:48.800Z,99666.88
2023-01-19T20:22:50.260Z,99659.56
2023-01-19T20:25:52.261Z,99671.25
2023-01-19T20:28:56.726Z,99671.91
2023-01-19T20:31:58.464Z,99683.59
2023-01-19T20:35:00.158Z,99679.03
2023-01-19T20:38:01.617Z,99680.91
2023-01-19T20:41:03.385Z,99696.16
2023-01-19T20:44:04.902Z,99698.00
2023-01-19T20:47:06.756Z,99690.91
2023-01-19T20:50:08.940Z,99697.00
2023-01-19T20:53:10.547Z,99704.09
2023-01-19T20:56:14.124Z,99704.94
2023-01-19T20:59:16.407Z,99704.09
2023-01-19T21:02:18.518Z,99714.81
2023-01-19T21:05:20.078Z,99710.38
2023-01-19T21:08:21.800Z,99712.44
2023-01-19T21:11:24.045Z,99719.53
2023-01-19T21:14:25.588Z,99725.66
2023-01-19T21:17:28.114Z,99733.81
2023-01-19T21:20:32.996Z,99739.03
2023-01-19T21:23:34.669Z,99745.97
2023-01-19T21:26:37.536Z,99751.22
2023-01-19T21:29:40.677Z,99751.22
2023-01-19T21:32:42.340Z,99749.34
2023-01-19T21:35:55.546Z,99759.00
2023-01-19T21:39:00.387Z,99758.34
2023-01-19T21:42:02.254Z,99761.25
2023-01-19T21:45:04.006Z,99764.97
2023-01-19T21:48:05.635Z,99770.38
2023-01-19T21:51:07.419Z,99774.28
2023-01-19T21:54:09.002Z,99770.91
2023-01-19T21:57:10.687Z,99772.09
2023-01-19T22:00:12.342Z,99778.53
2023-01-19T22:03:13.917Z,99779.91
2023-01-19T22:06:15.614Z,99779.22
2023-01-19T22:09:17.136Z,99786.69
2023-01-19T22:12:18.606Z,99785.19
2023-01-19T22:15:20.049Z,99789.09
2023-01-19T22:18:21.581Z,99794.66
2023-01-19T22:21:25.206Z,99792.16
2023-01-19T22:24:26.740Z,99794.34
2023-01-19T22:27:28.589Z,99801.81
2023-01-19T22:30:30.301Z,99802.81
2023-01-19T22:33:32.177Z,99807.56
2023-01-19T22:36:36.611Z,99821.31
2023-01-19T22:39:38.155Z,99811.47
2023-01-19T22:42:39.653Z,99819.78
2023-01-19T22:45:42.905Z,99820.97
2023-01-19T22:48:44.851Z,99826.56
2023-01-19T22:51:46.987Z,99818.78
2023-01-19T22:54:48.491Z,99825.38
2023-01-19T22:57:50.016Z,99829.44
2023-01-19T23:00:51.689Z,99826.09
2023-01-19T23:03:54.701Z,99833.53
2023-01-19T23:06:56.226Z,99833.88
2023-01-19T23:09:57.721Z,99833.34
2023-01-19T23:12:59.183Z,99839.81
2023-01-19T23:16:01.052Z,99838.28
2023-01-19T23:19:03.045Z,99826.75
2023-01-19T23:22:04.491Z,99838.78
2023-01-19T23:25:06.594Z,99842.53
2023-01-19T23:28:08.186Z,99848.94
2023-01-19T23:31:17.666Z,99849.13
2023-01-19T23:34:19.435Z,99845.88
2023-01-19T23:37:20.861Z,99850.63
2023-01-19T23:40:22.329Z,99847.25
2023-01-19T23:43:23.787Z,99852.84
2023-01-19T23:46:25.429Z,99865.53
2023-01-19T23:49:27.209Z,99859.44
2023-01-19T23:52:28.685Z,99871.28
2023-01-19T23:55:30.153Z,99869.59
2023-01-19T23:58:31.626Z,99868.59
